Tallassee, Tennessee
Current Conditions -  °F | °C
As of 4:53 PM on Monday 22 Dec 2014 (Local Time) from KTYS Reporting Station
Overcast Overcast  
Wind Chill: 56°   Ceiling: 6500
Heat Index: 56°   Visibility: 10mi
Dew Point: 44°   Wind: 5mph
Humidity: 64%   Direction: 50°NE
Pressure: 29.84"   Gusts: NA
Location:  35.55°N, 84.06°W
Report Text: KTYS 222153Z 05004KT 10SM BKN065 BKN080 OVC100 13/07 A2984 RMK AO2 RAB30E40 SLP103 P0000 T01330067
Loading
Personal Weather Stations






























Interactive Weather Map New forecast layout! Learn more

10-Day Weather Forecast

Advertisements
Track Severe Weather on mobile